Time;durP1;ratioP1;P1;durP2;ratioP2;P2;SDS_P1;SDS_P2;PMS_P1;PMS_P2;Temp;Humidity;BMP_temperature;BMP_pressure;BME280_temperature;BME280_humidity;BME280_pressure;Samples;Min_cycle;Max_cycle;Signal;HPM_P1;HPM_P2
2023/03/28 00:01:28;;;;;;;1.83;0.70;;;20.10;60.30;;;;;;4953182;29;20051;-78
2023/03/28 00:03:56;;;;;;;2.42;0.70;;;20.00;60.60;;;;;;4953196;29;20543;-78
2023/03/28 00:06:24;;;;;;;2.22;0.70;;;20.00;60.40;;;;;;4953474;29;20058;-77
2023/03/28 00:08:54;;;;;;;3.28;1.10;;;19.90;61.00;;;;;;4961902;28;20515;-77
2023/03/28 00:11:22;;;;;;;1.92;0.20;;;19.90;60.40;;;;;;4972066;28;20280;-77
2023/03/28 00:13:52;;;;;;;2.10;0.60;;;19.90;60.50;;;;;;4954686;28;20061;-77
2023/03/28 00:16:19;;;;;;;2.03;0.73;;;19.80;60.50;;;;;;4955095;28;20050;-77
2023/03/28 00:18:46;;;;;;;1.92;0.50;;;19.80;60.50;;;;;;4972343;28;20046;-77
2023/03/28 00:21:22;;;;;;;2.28;0.98;;;19.70;60.50;;;;;;4971764;28;20046;-77
2023/03/28 00:23:51;;;;;;;1.70;0.60;;;19.70;60.60;;;;;;4971769;28;20384;-77
2023/03/28 00:26:20;;;;;;;1.83;0.50;;;19.70;60.70;;;;;;4971666;28;20097;-77
2023/03/28 00:28:48;;;;;;;2.47;0.80;;;19.60;60.70;;;;;;4971309;28;20113;-78
2023/03/28 00:31:15;;;;;;;1.80;0.82;;;19.60;60.80;;;;;;4942383;28;20050;-77
2023/03/28 00:33:42;;;;;;;1.80;0.52;;;19.60;60.80;;;;;;4954052;28;20050;-78
2023/03/28 00:36:13;;;;;;;1.85;0.65;;;19.60;60.80;;;;;;4970992;28;20056;-77
2023/03/28 00:38:40;;;;;;;1.13;0.52;;;19.50;60.80;;;;;;4971195;28;20050;-77
2023/03/28 00:41:08;;;;;;;2.15;0.52;;;19.50;60.90;;;;;;4954023;28;20476;-77
2023/03/28 00:43:39;;;;;;;1.92;0.73;;;19.40;60.80;;;;;;4953446;28;20046;-77
2023/03/28 00:46:12;;;;;;;2.17;0.52;;;19.40;60.90;;;;;;4954160;28;20071;-77
2023/03/28 00:48:45;;;;;;;2.55;1.75;;;19.40;60.90;;;;;;4969830;28;20051;-77
2023/03/28 00:51:13;;;;;;;2.30;0.30;;;19.40;60.90;;;;;;4953643;28;20078;-77
2023/03/28 00:53:42;;;;;;;1.65;0.70;;;19.40;60.90;;;;;;4970337;28;20050;-77
2023/03/28 00:56:13;;;;;;;2.55;0.60;;;19.40;61.00;;;;;;4971017;28;20125;-77
2023/03/28 00:58:43;;;;;;;1.00;0.57;;;19.40;60.90;;;;;;4971000;28;20074;-78
2023/03/28 01:01:14;;;;;;;2.40;0.77;;;19.40;60.90;;;;;;4970603;28;20236;-78
2023/03/28 01:03:45;;;;;;;3.17;0.50;;;19.40;60.90;;;;;;4970383;28;20043;-77
2023/03/28 01:06:14;;;;;;;2.40;0.63;;;19.50;60.90;;;;;;4963458;28;20066;-76
2023/03/28 01:08:46;;;;;;;1.60;0.40;;;19.50;60.80;;;;;;4970176;28;20423;-77
2023/03/28 01:11:14;;;;;;;2.47;0.63;;;19.50;60.70;;;;;;4951549;28;20053;-77
2023/03/28 01:13:48;;;;;;;2.55;1.10;;;19.60;60.80;;;;;;4960313;28;20059;-77
2023/03/28 01:16:16;;;;;;;1.73;0.70;;;19.60;60.70;;;;;;4953080;28;20050;-77
2023/03/28 01:18:50;;;;;;;1.48;0.13;;;19.60;60.60;;;;;;4970787;28;20502;-78
2023/03/28 01:22:05;;;;;;;2.05;0.63;;;19.70;60.50;;;;;;4952228;28;20051;-78
2023/03/28 01:24:56;;;;;;;2.05;0.10;;;19.80;60.50;;;;;;4957882;28;20475;-77
2023/03/28 01:27:28;;;;;;;1.52;0.80;;;19.80;60.30;;;;;;4970801;28;20058;-78
2023/03/28 01:30:30;;;;;;;2.65;0.65;;;19.90;60.20;;;;;;4949220;28;20117;-77
2023/03/28 01:33:43;;;;;;;2.97;0.70;;;20.00;60.20;;;;;;4960414;28;20410;-77
2023/03/28 01:36:43;;;;;;;2.03;1.00;;;20.10;60.00;;;;;;4951488;28;20050;-77
2023/03/28 01:39:18;;;;;;;2.22;0.93;;;20.10;59.90;;;;;;4935154;29;20117;-77
2023/03/28 01:41:53;;;;;;;1.95;0.93;;;20.20;59.90;;;;;;4961263;28;20130;-77
2023/03/28 01:44:30;;;;;;;1.90;0.20;;;20.20;59.70;;;;;;4970686;28;20533;-77
2023/03/28 01:47:02;;;;;;;2.30;0.80;;;20.20;59.70;;;;;;4953573;28;20114;-77
2023/03/28 01:49:35;;;;;;;1.80;0.50;;;20.20;59.70;;;;;;4970792;28;20050;-78
2023/03/28 01:52:08;;;;;;;2.97;0.93;;;20.20;59.80;;;;;;4953508;28;20055;-77
2023/03/28 01:54:44;;;;;;;1.80;0.70;;;20.20;59.80;;;;;;4970418;28;20054;-77
2023/03/28 01:57:16;;;;;;;1.45;0.20;;;20.20;59.80;;;;;;4947094;28;20054;-77
2023/03/28 01:59:48;;;;;;;2.10;0.60;;;20.10;59.80;;;;;;4953408;28;20055;-77
2023/03/28 02:02:22;;;;;;;1.77;0.60;;;20.10;59.90;;;;;;4953398;28;20070;-77
2023/03/28 02:04:54;;;;;;;2.20;0.57;;;20.00;59.90;;;;;;4953335;28;20163;-77
2023/03/28 02:07:23;;;;;;;1.73;0.77;;;20.00;59.90;;;;;;4953479;28;20141;-77
2023/03/28 02:09:54;;;;;;;1.83;0.10;;;20.00;60.00;;;;;;4970270;28;20189;-77
2023/03/28 02:12:25;;;;;;;1.95;0.70;;;20.00;60.00;;;;;;4952379;28;20062;-77
2023/03/28 02:14:55;;;;;;;2.03;0.85;;;19.90;60.00;;;;;;4970682;28;20055;-77
2023/03/28 02:17:25;;;;;;;2.25;0.50;;;19.90;60.10;;;;;;4970590;28;20061;-77
2023/03/28 02:19:57;;;;;;;1.48;0.40;;;19.90;60.20;;;;;;4970399;28;20054;-77
2023/03/28 02:22:30;;;;;;;1.40;0.10;;;19.80;60.10;;;;;;4971065;28;20049;-76
2023/03/28 02:24:59;;;;;;;1.60;0.50;;;19.80;60.10;;;;;;4970452;28;20062;-76
2023/03/28 02:27:27;;;;;;;2.20;0.80;;;19.80;60.80;;;;;;4953228;28;20066;-77
2023/03/28 02:29:54;;;;;;;1.48;0.50;;;19.70;60.20;;;;;;4961025;28;20044;-77
2023/03/28 02:32:22;;;;;;;2.03;0.63;;;19.70;60.20;;;;;;4933933;29;20114;-77
2023/03/28 02:34:52;;;;;;;1.65;0.93;;;19.60;60.30;;;;;;4967131;28;20043;-77
2023/03/28 02:37:31;;;;;;;1.10;0.10;;;19.60;60.40;;;;;;4952402;28;20051;-77
2023/03/28 02:40:08;;;;;;;1.20;0.10;;;19.60;60.40;;;;;;4969489;28;20050;-77
2023/03/28 02:43:09;;;;;;;1.45;0.10;;;19.50;60.40;;;;;;4952318;28;20055;-76
2023/03/28 02:46:05;;;;;;;1.67;0.10;;;19.50;61.00;;;;;;4944403;28;20046;-77
2023/03/28 02:48:47;;;;;;;1.75;0.70;;;19.40;60.40;;;;;;4966810;28;20066;-77
2023/03/28 02:51:22;;;;;;;1.92;0.70;;;19.40;60.50;;;;;;4953290;28;20053;-77
2023/03/28 02:53:58;;;;;;;2.22;0.50;;;19.40;60.50;;;;;;4973155;28;20054;-77
2023/03/28 02:56:35;;;;;;;0.70;0.13;;;19.30;60.50;;;;;;4973083;28;20051;-77
2023/03/28 02:59:08;;;;;;;2.20;0.68;;;19.40;60.50;;;;;;4956264;28;20064;-77
2023/03/28 03:01:39;;;;;;;2.17;0.73;;;19.40;60.60;;;;;;4973052;28;20134;-77
2023/03/28 03:04:06;;;;;;;1.05;0.60;;;19.40;60.50;;;;;;4972032;28;20047;-77
2023/03/28 03:06:35;;;;;;;2.45;0.77;;;19.40;60.50;;;;;;4973336;28;20101;-78
2023/03/28 03:09:03;;;;;;;2.50;0.40;;;19.40;60.50;;;;;;4973182;28;20601;-77
2023/03/28 03:11:31;;;;;;;1.08;0.45;;;19.40;60.40;;;;;;4973572;28;20131;-77
2023/03/28 03:13:59;;;;;;;1.85;0.20;;;19.50;60.40;;;;;;4973345;28;20471;-77
2023/03/28 03:16:27;;;;;;;1.17;0.70;;;19.50;60.30;;;;;;4956093;28;20141;-77
2023/03/28 03:18:55;;;;;;;1.30;0.75;;;19.60;60.30;;;;;;4973345;28;20051;-75
2023/03/28 03:21:22;;;;;;;1.45;0.60;;;19.60;60.20;;;;;;4972415;28;20050;-77
2023/03/28 03:23:49;;;;;;;1.00;0.60;;;19.60;60.10;;;;;;4955540;28;20070;-77
2023/03/28 03:26:17;;;;;;;2.92;0.68;;;19.70;60.10;;;;;;4973132;28;20046;-77
2023/03/28 03:28:45;;;;;;;2.97;0.80;;;19.70;60.10;;;;;;4955798;28;20190;-77
2023/03/28 03:31:12;;;;;;;1.60;0.50;;;19.70;60.10;;;;;;4972901;28;20532;-77
2023/03/28 03:33:40;;;;;;;1.38;0.38;;;19.70;60.00;;;;;;4973239;28;20054;-77
2023/03/28 03:36:11;;;;;;;1.42;0.10;;;19.80;60.00;;;;;;4973150;28;20051;-76
2023/03/28 03:38:38;;;;;;;1.20;0.22;;;19.80;59.90;;;;;;4954687;28;20058;-77
2023/03/28 03:41:05;;;;;;;2.45;0.30;;;19.90;59.90;;;;;;4966200;28;20054;-77
2023/03/28 03:43:33;;;;;;;1.50;0.38;;;20.00;59.80;;;;;;4971206;28;20423;-77
2023/03/28 03:46:01;;;;;;;1.15;0.57;;;20.00;59.60;;;;;;4968777;28;20590;-77
2023/03/28 03:48:28;;;;;;;2.90;0.17;;;20.10;59.50;;;;;;4951659;29;20043;-77
2023/03/28 03:50:55;;;;;;;2.10;0.40;;;20.10;59.40;;;;;;4954876;28;20121;-77
2023/03/28 03:53:22;;;;;;;1.00;0.15;;;20.20;59.40;;;;;;4954591;28;20051;-76
2023/03/28 03:55:49;;;;;;;1.88;0.30;;;20.20;59.30;;;;;;4970470;28;20510;-77
2023/03/28 03:58:17;;;;;;;1.67;0.10;;;20.20;59.20;;;;;;4972024;28;20198;-77
2023/03/28 04:00:45;;;;;;;1.27;0.70;;;20.20;59.20;;;;;;4971760;28;20051;-77
2023/03/28 04:03:13;;;;;;;0.90;0.50;;;20.20;59.90;;;;;;4971775;28;20047;-77
2023/03/28 04:05:40;;;;;;;1.75;0.60;;;20.20;59.30;;;;;;4972601;28;20574;-77
2023/03/28 04:08:07;;;;;;;1.38;0.60;;;20.20;59.20;;;;;;4954582;28;20047;-77
2023/03/28 04:10:34;;;;;;;1.05;0.50;;;20.20;60.00;;;;;;4952806;29;20055;-76
2023/03/28 04:13:01;;;;;;;2.28;0.63;;;20.10;59.30;;;;;;4935819;29;20059;-77
2023/03/28 04:15:28;;;;;;;1.52;0.25;;;20.10;59.40;;;;;;4953077;28;20051;-77
2023/03/28 04:17:56;;;;;;;1.10;0.10;;;20.10;59.40;;;;;;4952838;28;20070;-77
2023/03/28 04:20:24;;;;;;;1.90;0.88;;;20.00;59.50;;;;;;4970900;28;20130;-77
2023/03/28 04:22:52;;;;;;;2.00;0.70;;;20.00;59.50;;;;;;4954783;28;20054;-77
2023/03/28 04:25:19;;;;;;;1.70;0.20;;;20.00;59.50;;;;;;4953968;28;20455;-76
2023/03/28 04:27:46;;;;;;;1.73;0.93;;;19.90;59.50;;;;;;4953906;28;20073;-76
2023/03/28 04:30:14;;;;;;;1.90;0.57;;;19.90;59.60;;;;;;4971880;28;20484;-76
2023/03/28 04:32:41;;;;;;;1.85;0.77;;;19.90;59.70;;;;;;4971939;28;20077;-76
2023/03/28 04:35:10;;;;;;;1.40;0.85;;;19.80;59.70;;;;;;4954642;28;20142;-76
2023/03/28 04:37:38;;;;;;;1.25;0.55;;;19.80;59.70;;;;;;4954080;28;20050;-76
2023/03/28 04:40:09;;;;;;;1.35;0.80;;;19.70;59.70;;;;;;4971569;28;20051;-76
2023/03/28 04:42:36;;;;;;;1.20;0.52;;;19.70;59.80;;;;;;4971354;28;20081;-76
2023/03/28 04:45:05;;;;;;;2.15;0.50;;;19.70;59.80;;;;;;4971496;28;20058;-76
2023/03/28 04:47:32;;;;;;;1.23;0.52;;;19.60;59.90;;;;;;4971522;28;20113;-76
2023/03/28 04:49:59;;;;;;;1.33;0.60;;;19.60;60.00;;;;;;4971415;28;20046;-76
2023/03/28 04:52:26;;;;;;;1.70;0.52;;;19.60;60.00;;;;;;4953714;28;20062;-76
2023/03/28 04:54:54;;;;;;;2.17;0.70;;;19.50;60.00;;;;;;4971293;28;20051;-76
2023/03/28 04:57:21;;;;;;;1.65;0.47;;;19.50;60.00;;;;;;4954052;28;20058;-77
2023/03/28 04:59:48;;;;;;;2.67;0.85;;;19.40;60.00;;;;;;4971331;28;20053;-76
2023/03/28 05:02:15;;;;;;;1.75;0.50;;;19.40;60.00;;;;;;4961920;28;20051;-76
2023/03/28 05:04:43;;;;;;;1.48;0.55;;;19.40;60.10;;;;;;4971222;28;20055;-76
2023/03/28 05:07:10;;;;;;;1.73;0.57;;;19.40;60.10;;;;;;4970563;28;20101;-76
2023/03/28 05:09:37;;;;;;;1.33;0.73;;;19.30;60.10;;;;;;4950596;28;20047;-76
2023/03/28 05:12:06;;;;;;;1.20;0.50;;;19.30;60.00;;;;;;4942555;29;20639;-76
2023/03/28 05:14:33;;;;;;;2.20;0.70;;;19.40;60.10;;;;;;4932998;29;20063;-76
2023/03/28 05:17:00;;;;;;;1.65;0.70;;;19.40;60.00;;;;;;4933024;29;20051;-77
2023/03/28 05:19:27;;;;;;;1.50;0.60;;;19.40;60.00;;;;;;4933186;29;20048;-77
2023/03/28 05:21:54;;;;;;;1.33;0.13;;;19.50;60.00;;;;;;4936664;29;20171;-77
2023/03/28 05:24:21;;;;;;;1.80;0.50;;;19.50;60.00;;;;;;4951677;29;20051;-77
2023/03/28 05:26:48;;;;;;;1.30;0.70;;;19.50;60.00;;;;;;4951997;28;20054;-77
2023/03/28 05:29:17;;;;;;;0.63;0.10;;;19.50;60.00;;;;;;4950288;29;20102;-77
2023/03/28 05:31:43;;;;;;;0.88;0.45;;;19.60;59.90;;;;;;4951070;28;20051;-77
2023/03/28 05:34:10;;;;;;;0.90;0.10;;;19.60;59.80;;;;;;4949706;29;20059;-77
2023/03/28 05:36:37;;;;;;;1.38;0.63;;;19.70;59.70;;;;;;4944660;29;20044;-77
2023/03/28 05:39:05;;;;;;;0.93;0.30;;;19.70;59.60;;;;;;4949788;29;20058;-77
2023/03/28 05:41:32;;;;;;;1.63;0.80;;;19.80;59.50;;;;;;4950099;29;20059;-77
2023/03/28 05:43:59;;;;;;;1.88;0.73;;;19.90;59.50;;;;;;4938338;29;20055;-77
2023/03/28 05:46:28;;;;;;;2.08;0.55;;;19.90;59.30;;;;;;4932625;29;20065;-77
2023/03/28 05:48:54;;;;;;;1.70;0.65;;;20.00;59.20;;;;;;4947538;29;20066;-77
2023/03/28 05:51:21;;;;;;;2.67;0.55;;;20.10;59.20;;;;;;4951462;29;20055;-78
2023/03/28 05:53:49;;;;;;;1.25;0.70;;;20.10;59.00;;;;;;4942077;29;20055;-77
2023/03/28 05:56:16;;;;;;;1.25;0.65;;;20.20;58.90;;;;;;4944614;29;20055;-78
2023/03/28 05:58:43;;;;;;;1.25;0.70;;;20.20;58.90;;;;;;4951297;29;20098;-77
2023/03/28 06:01:11;;;;;;;1.65;0.70;;;20.20;58.80;;;;;;4951032;29;20605;-77
2023/03/28 06:03:41;;;;;;;0.95;0.10;;;20.20;58.80;;;;;;4950942;29;20089;-77
2023/03/28 06:06:09;;;;;;;1.73;0.40;;;20.20;58.90;;;;;;4951085;28;20445;-77
2023/03/28 06:08:36;;;;;;;2.40;0.43;;;20.10;58.80;;;;;;4954109;28;20070;-77
2023/03/28 06:11:04;;;;;;;1.60;0.80;;;20.20;59.00;;;;;;4959726;28;20051;-77
2023/03/28 06:13:31;;;;;;;1.83;0.55;;;20.10;59.00;;;;;;4934034;29;20081;-77
2023/03/28 06:15:58;;;;;;;0.90;0.43;;;20.10;59.10;;;;;;4951026;29;20055;-77
2023/03/28 06:18:25;;;;;;;1.42;0.50;;;20.10;59.10;;;;;;4951391;28;20047;-77
2023/03/28 06:20:53;;;;;;;1.80;0.70;;;20.00;59.10;;;;;;4969258;28;20043;-77
2023/03/28 06:23:21;;;;;;;1.23;0.77;;;20.00;59.20;;;;;;4970179;28;20046;-77
2023/03/28 06:25:48;;;;;;;1.50;0.70;;;20.00;59.20;;;;;;4970062;28;20134;-77
2023/03/28 06:28:15;;;;;;;1.25;0.20;;;19.90;59.30;;;;;;4943414;28;20225;-77
2023/03/28 06:30:42;;;;;;;2.45;0.60;;;19.90;59.30;;;;;;4954914;29;20055;-77
2023/03/28 06:33:09;;;;;;;1.15;0.90;;;19.90;59.30;;;;;;4953107;28;20408;-77
2023/03/28 06:35:36;;;;;;;1.40;0.50;;;19.90;59.30;;;;;;4956378;28;20426;-77
2023/03/28 06:38:05;;;;;;;1.23;0.40;;;19.80;59.30;;;;;;4974365;28;20058;-77
2023/03/28 06:40:32;;;;;;;1.50;0.60;;;19.80;59.40;;;;;;4974113;28;20086;-77
2023/03/28 06:42:58;;;;;;;1.70;0.77;;;19.70;59.40;;;;;;4974028;28;20847;-77
2023/03/28 06:45:25;;;;;;;1.38;1.00;;;19.70;59.40;;;;;;4955930;28;20062;-77
2023/03/28 06:47:53;;;;;;;1.58;0.73;;;19.60;59.40;;;;;;4973647;28;20432;-77
2023/03/28 06:50:20;;;;;;;1.50;0.63;;;19.70;59.60;;;;;;4956326;28;20113;-77
2023/03/28 06:52:47;;;;;;;2.30;0.93;;;19.60;59.50;;;;;;4956321;28;20058;-77
2023/03/28 06:55:16;;;;;;;1.25;0.60;;;19.60;59.60;;;;;;4955901;28;20594;-77
2023/03/28 06:57:42;;;;;;;1.52;0.73;;;19.60;59.70;;;;;;4973346;28;20569;-77
2023/03/28 07:00:10;;;;;;;1.15;0.70;;;19.50;59.60;;;;;;4973824;28;20047;-75
2023/03/28 07:02:37;;;;;;;1.38;0.75;;;19.50;59.70;;;;;;4972776;28;20054;-77
2023/03/28 07:05:05;;;;;;;1.23;0.60;;;19.50;59.70;;;;;;4972684;28;20055;-78
2023/03/28 07:07:31;;;;;;;1.05;0.50;;;19.40;59.70;;;;;;4972860;28;20492;-78
2023/03/28 07:09:58;;;;;;;1.67;0.60;;;19.50;59.80;;;;;;4972297;28;20054;-78
2023/03/28 07:12:27;;;;;;;1.58;0.52;;;19.50;59.70;;;;;;4972857;28;20051;-77
2023/03/28 07:14:54;;;;;;;2.00;0.70;;;19.50;59.70;;;;;;4955528;28;20070;-77
2023/03/28 07:17:20;;;;;;;1.30;0.60;;;19.50;59.70;;;;;;4972549;28;20491;-78
2023/03/28 07:19:49;;;;;;;1.45;0.73;;;19.50;59.60;;;;;;4971353;28;20053;-78
2023/03/28 07:22:16;;;;;;;1.45;0.52;;;19.60;59.60;;;;;;4972174;28;20047;-77
2023/03/28 07:24:43;;;;;;;1.50;0.43;;;19.60;59.40;;;;;;4972254;28;20414;-78
2023/03/28 07:27:10;;;;;;;1.02;0.10;;;19.70;59.40;;;;;;4955348;28;20150;-78
2023/03/28 07:29:39;;;;;;;1.58;0.10;;;19.80;59.30;;;;;;4972414;28;20553;-77
2023/03/28 07:32:06;;;;;;;1.23;0.40;;;19.80;59.10;;;;;;4954424;28;20479;-78
2023/03/28 07:34:33;;;;;;;1.35;0.40;;;19.90;59.10;;;;;;4972508;28;20182;-78
2023/03/28 07:37:00;;;;;;;1.98;0.73;;;20.00;59.10;;;;;;4952880;28;20055;-78
2023/03/28 07:39:27;;;;;;;2.17;0.50;;;20.00;59.00;;;;;;4953846;28;20417;-78
2023/03/28 07:41:54;;;;;;;0.82;0.10;;;20.10;58.80;;;;;;4972269;28;20058;-77
2023/03/28 07:44:21;;;;;;;0.90;0.13;;;20.20;58.80;;;;;;4972750;28;20359;-77
2023/03/28 07:46:50;;;;;;;1.55;0.85;;;20.30;58.70;;;;;;4972025;28;20046;-78
2023/03/28 07:49:19;;;;;;;1.63;0.55;;;20.30;58.50;;;;;;4974895;28;20128;-77
2023/03/28 07:51:46;;;;;;;1.10;0.63;;;20.40;58.40;;;;;;4970696;28;20043;-78
2023/03/28 07:54:16;;;;;;;1.50;0.95;;;20.50;58.30;;;;;;4970724;28;20058;-77
2023/03/28 07:56:44;;;;;;;1.45;0.85;;;20.50;58.30;;;;;;4971115;28;20134;-77
2023/03/28 07:59:12;;;;;;;2.35;0.82;;;20.50;58.20;;;;;;4954905;28;20093;-77
2023/03/28 08:01:39;;;;;;;1.95;0.70;;;20.50;58.20;;;;;;4955244;28;20083;-77
2023/03/28 08:04:08;;;;;;;1.60;0.63;;;20.50;58.20;;;;;;4953534;28;20063;-77
2023/03/28 08:06:36;;;;;;;0.65;0.08;;;20.50;58.20;;;;;;4936408;29;20071;-77
2023/03/28 08:09:05;;;;;;;1.73;0.40;;;20.50;58.30;;;;;;4953783;28;20062;-76
2023/03/28 08:11:33;;;;;;;1.63;0.52;;;20.40;58.30;;;;;;4935613;29;20114;-77
2023/03/28 08:14:01;;;;;;;0.95;0.43;;;20.40;58.30;;;;;;4936381;28;20107;-77
2023/03/28 08:16:28;;;;;;;1.58;0.15;;;20.30;59.00;;;;;;4972055;28;20047;-77
2023/03/28 08:18:55;;;;;;;1.90;0.63;;;20.30;58.40;;;;;;4954099;28;20061;-79
2023/03/28 08:21:24;;;;;;;0.98;0.52;;;20.30;58.50;;;;;;4954303;28;20086;-79
2023/03/28 08:23:51;;;;;;;1.60;0.57;;;20.30;58.50;;;;;;4954520;28;20055;-80
2023/03/28 08:26:18;;;;;;;2.30;0.57;;;20.20;58.50;;;;;;4970527;28;20054;-78
2023/03/28 08:28:45;;;;;;;2.22;0.90;;;20.20;58.70;;;;;;4954681;28;20050;-76
2023/03/28 08:31:14;;;;;;;1.23;0.17;;;20.20;58.70;;;;;;4970754;28;20050;-78
2023/03/28 08:33:42;;;;;;;1.42;0.43;;;20.20;59.50;;;;;;4953537;28;20058;-80
2023/03/28 08:36:13;;;;;;;1.88;0.80;;;20.20;58.90;;;;;;4963199;28;20059;-79
2023/03/28 08:38:41;;;;;;;3.13;0.68;;;20.10;59.00;;;;;;4966114;28;20058;-80
2023/03/28 08:41:20;;;;;;;2.20;0.63;;;20.10;59.20;;;;;;4969230;28;20058;-79
2023/03/28 08:44:06;;;;;;;1.77;0.47;;;20.10;59.40;;;;;;4946062;28;20043;-80
2023/03/28 08:46:36;;;;;;;4.07;0.50;;;20.10;59.50;;;;;;4961402;28;20055;-79
2023/03/28 08:49:06;;;;;;;1.70;0.40;;;20.10;59.60;;;;;;4953893;28;20051;-80
2023/03/28 08:51:36;;;;;;;2.30;0.50;;;20.00;59.70;;;;;;4955110;28;20066;-81
2023/03/28 08:54:13;;;;;;;1.75;0.73;;;20.10;59.70;;;;;;4960950;28;20105;-79
2023/03/28 08:56:45;;;;;;;1.02;0.10;;;20.00;59.80;;;;;;4950161;28;20586;-80
2023/03/28 08:59:14;;;;;;;2.13;0.40;;;20.00;59.90;;;;;;4951901;28;20483;-80
2023/03/28 09:01:41;;;;;;;4.78;0.47;;;20.00;59.90;;;;;;4942222;28;20089;-80
2023/03/28 09:04:19;;;;;;;2.50;0.50;;;20.00;60.00;;;;;;4940533;28;20058;-80
2023/03/28 09:06:48;;;;;;;2.60;0.57;;;20.00;60.10;;;;;;4952035;28;20051;-80
2023/03/28 09:09:34;;;;;;;1.60;0.85;;;20.00;60.10;;;;;;4952206;28;20055;-81
2023/03/28 09:12:19;;;;;;;2.45;0.50;;;20.00;60.20;;;;;;4941680;28;20101;-80
2023/03/28 09:15:01;;;;;;;1.60;0.65;;;19.90;60.20;;;;;;4947905;28;20091;-80
2023/03/28 09:17:37;;;;;;;2.50;0.70;;;19.90;60.20;;;;;;4971051;28;20057;-82
2023/03/28 09:20:11;;;;;;;3.88;0.98;;;19.90;60.30;;;;;;4943821;28;20419;-80
2023/03/28 09:22:48;;;;;;;2.03;0.57;;;19.90;60.40;;;;;;4954495;28;20068;-80
2023/03/28 09:25:31;;;;;;;2.38;0.20;;;19.90;60.40;;;;;;4971831;28;20109;-81
2023/03/28 09:28:06;;;;;;;1.20;0.08;;;19.90;60.40;;;;;;4949835;28;20051;-80
2023/03/28 09:30:35;;;;;;;2.80;0.47;;;19.80;60.40;;;;;;4970134;28;20055;-82
2023/03/28 09:33:06;;;;;;;4.03;0.80;;;19.80;60.50;;;;;;4971302;28;20077;-80
2023/03/28 09:35:34;;;;;;;2.97;0.70;;;19.80;60.60;;;;;;4970405;28;20062;-81
2023/03/28 09:38:05;;;;;;;2.67;0.10;;;19.80;60.70;;;;;;4971484;28;20066;-82
2023/03/28 09:40:35;;;;;;;2.60;0.10;;;19.80;60.70;;;;;;4943131;28;20093;-81
2023/03/28 09:43:10;;;;;;;1.67;0.10;;;19.70;60.70;;;;;;4970842;28;20122;-82
2023/03/28 09:45:48;;;;;;;5.40;0.25;;;19.80;60.80;;;;;;4970705;28;20106;-81
2023/03/28 09:48:20;;;;;;;7.00;0.20;;;19.70;60.80;;;;;;4964543;28;20057;-80
2023/03/28 09:50:47;;;;;;;1.63;0.10;;;19.70;60.80;;;;;;4970035;28;20179;-80
2023/03/28 09:53:21;;;;;;;2.05;0.55;;;19.70;60.90;;;;;;4971497;28;20050;-81
2023/03/28 09:55:50;;;;;;;1.95;0.10;;;19.70;60.60;;;;;;4943275;28;20063;-80
2023/03/28 09:58:17;;;;;;;1.23;0.20;;;19.60;61.50;;;;;;4952937;28;20043;-81
2023/03/28 10:00:48;;;;;;;3.03;0.20;;;19.70;61.00;;;;;;4970806;28;20093;-80
2023/03/28 10:03:28;;;;;;;3.55;0.35;;;19.60;61.00;;;;;;4956299;28;20055;-82
2023/03/28 10:05:56;;;;;;;0.70;0.20;;;19.60;61.10;;;;;;4974379;28;20047;-80
2023/03/28 10:08:31;;;;;;;2.45;0.10;;;19.60;61.00;;;;;;4975246;28;20882;-80
2023/03/28 10:11:05;;;;;;;1.35;0.10;;;19.60;61.10;;;;;;4975128;28;20066;-81
2023/03/28 10:13:41;;;;;;;3.80;0.20;;;19.60;61.10;;;;;;4950844;29;20051;-80
2023/03/28 10:16:10;;;;;;;;;;;19.70;61.20;;;;;;4953043;28;20112;-81
2023/03/28 10:18:38;;;;;;;2.83;0.10;;;19.70;61.10;;;;;;4974891;28;19941;-82
2023/03/28 10:21:12;;;;;;;1.02;0.10;;;19.70;61.00;;;;;;4957501;28;20488;-80
2023/03/28 10:23:41;;;;;;;2.72;0.40;;;19.80;61.00;;;;;;4974739;28;20055;-81
2023/03/28 10:26:16;;;;;;;2.20;0.10;;;19.90;60.90;;;;;;4952635;28;20059;-82
2023/03/28 10:28:43;;;;;;;1.98;0.30;;;20.00;60.80;;;;;;4958314;28;20069;-82
2023/03/28 10:31:25;;;;;;;2.05;0.10;;;20.00;60.70;;;;;;4974219;28;20051;-82
2023/03/28 10:33:53;;;;;;;2.38;0.20;;;20.10;61.20;;;;;;4956589;28;20519;-82
2023/03/28 10:36:30;;;;;;;2.38;0.20;;;20.20;60.50;;;;;;4974577;28;20067;-81
2023/03/28 10:38:57;;;;;;;1.58;0.10;;;20.30;60.40;;;;;;4948022;28;20054;-81
2023/03/28 10:41:27;;;;;;;0.80;0.10;;;20.40;60.30;;;;;;4957616;28;20055;-79
2023/03/28 10:43:55;;;;;;;1.45;0.10;;;20.50;60.40;;;;;;4971397;28;20526;-79
2023/03/28 10:46:28;;;;;;;1.67;0.10;;;20.50;60.10;;;;;;4957511;28;20101;-79
2023/03/28 10:48:58;;;;;;;1.25;0.10;;;20.50;60.10;;;;;;4974228;28;20046;-78
2023/03/28 10:51:28;;;;;;;1.20;0.10;;;20.50;60.10;;;;;;4974181;28;20048;-79
2023/03/28 10:54:12;;;;;;;1.95;0.47;;;20.60;60.10;;;;;;4955955;28;20053;-79
2023/03/28 10:56:51;;;;;;;0.82;0.10;;;20.60;60.10;;;;;;4973182;28;20554;-78
2023/03/28 10:59:44;;;;;;;2.50;0.10;;;20.60;60.00;;;;;;4972274;28;20050;-77
2023/03/28 11:02:36;;;;;;;3.25;0.15;;;20.60;60.10;;;;;;4954274;28;20055;-79
2023/03/28 11:05:14;;;;;;;1.30;0.10;;;20.60;60.10;;;;;;4956960;28;20047;-81
2023/03/28 11:07:44;;;;;;;2.60;0.47;;;20.50;60.10;;;;;;4969341;28;20404;-82
2023/03/28 11:10:17;;;;;;;1.70;0.15;;;20.50;60.20;;;;;;4954223;28;20102;-83
2023/03/28 11:12:57;;;;;;;2.38;0.40;;;20.50;60.20;;;;;;4956295;28;20724;-83
2023/03/28 11:15:30;;;;;;;2.22;0.15;;;20.50;60.30;;;;;;4957434;28;20055;-80
2023/03/28 11:18:12;;;;;;;0.88;0.10;;;20.50;60.30;;;;;;4942797;28;20046;-81
2023/03/28 11:20:47;;;;;;;1.40;0.00;;;20.40;60.30;;;;;;4956841;28;20487;-81
2023/03/28 11:23:43;;;;;;;1.55;0.47;;;20.40;60.30;;;;;;4974171;28;20054;-83
2023/03/28 11:26:13;;;;;;;2.47;0.50;;;20.40;60.30;;;;;;4957086;28;20054;-80
2023/03/28 11:28:58;;;;;;;1.35;0.10;;;20.40;60.40;;;;;;4973438;28;20057;-82
2023/03/28 11:31:29;;;;;;;2.47;0.25;;;20.30;60.40;;;;;;4972146;28;20594;-82
2023/03/28 11:34:01;;;;;;;2.30;0.45;;;20.30;60.40;;;;;;4964594;28;20054;-81
2023/03/28 11:36:33;;;;;;;1.05;0.10;;;20.30;60.50;;;;;;4955921;28;20064;-76
2023/03/28 11:39:06;;;;;;;1.05;0.03;;;20.30;60.50;;;;;;4973880;28;20047;-82
2023/03/28 11:41:36;;;;;;;2.80;0.10;;;20.20;60.50;;;;;;4956361;28;20055;-82
2023/03/28 11:44:11;;;;;;;2.13;0.15;;;20.20;60.60;;;;;;4962554;28;20063;-82
2023/03/28 11:46:41;;;;;;;0.60;0.10;;;20.20;60.60;;;;;;4973978;28;20050;-80
2023/03/28 11:49:20;;;;;;;1.70;0.20;;;20.20;60.60;;;;;;4973062;28;20105;-80
2023/03/28 11:51:58;;;;;;;1.20;0.55;;;20.20;60.60;;;;;;4956544;28;20055;-80
2023/03/28 11:54:33;;;;;;;2.08;0.08;;;20.20;60.70;;;;;;4938183;28;20059;-78
2023/03/28 11:57:06;;;;;;;2.38;0.10;;;20.20;60.70;;;;;;4972710;28;20063;-80
2023/03/28 11:59:43;;;;;;;1.65;0.10;;;20.20;60.80;;;;;;4949083;29;20504;-80
2023/03/28 12:02:22;;;;;;;1.33;0.60;;;20.20;61.40;;;;;;4953203;28;20496;-79
2023/03/28 12:04:55;;;;;;;2.33;0.70;;;20.20;60.80;;;;;;4937785;28;20054;-82
2023/03/28 12:07:29;;;;;;;1.15;0.40;;;20.20;60.80;;;;;;4972212;28;20058;-79
2023/03/28 12:10:08;;;;;;;2.25;0.00;;;20.20;60.80;;;;;;4963391;28;20117;-80
2023/03/28 12:12:41;;;;;;;1.80;0.60;;;20.20;60.80;;;;;;4972426;28;20420;-80
2023/03/28 12:15:16;;;;;;;1.40;0.40;;;20.20;60.70;;;;;;4956460;28;20061;-81
2023/03/28 12:17:46;;;;;;;1.63;0.20;;;20.20;60.70;;;;;;4956332;28;20503;-79
2023/03/28 12:20:17;;;;;;;1.67;0.17;;;20.30;60.80;;;;;;4955626;28;20057;-80
2023/03/28 12:22:51;;;;;;;1.65;0.13;;;20.30;60.80;;;;;;4955802;28;20061;-79
2023/03/28 12:25:28;;;;;;;2.45;0.45;;;20.30;60.80;;;;;;4958856;28;20518;-79
2023/03/28 12:28:02;;;;;;;2.17;0.10;;;20.30;60.80;;;;;;4953301;28;20047;-80
2023/03/28 12:30:37;;;;;;;1.75;0.47;;;20.30;60.80;;;;;;4966898;28;20077;-80
2023/03/28 12:33:14;;;;;;;1.25;0.10;;;20.30;60.80;;;;;;4955897;28;20492;-80
2023/03/28 12:35:48;;;;;;;1.20;0.10;;;20.30;60.80;;;;;;4955886;28;20054;-79
2023/03/28 12:38:31;;;;;;;0.93;0.10;;;20.30;60.80;;;;;;4953746;28;20062;-79
2023/03/28 12:41:02;;;;;;;1.27;0.20;;;20.30;60.90;;;;;;4957146;28;20043;-79
2023/03/28 12:43:38;;;;;;;1.55;0.13;;;20.30;60.90;;;;;;4961211;28;20058;-78
2023/03/28 12:46:08;;;;;;;1.42;0.22;;;20.30;60.90;;;;;;4954770;28;20071;-77
2023/03/28 12:48:37;;;;;;;2.20;0.20;;;20.30;60.90;;;;;;4958960;28;20051;-79
2023/03/28 12:51:09;;;;;;;0.98;0.22;;;20.30;60.90;;;;;;4958706;28;20492;-80
2023/03/28 12:53:43;;;;;;;0.90;0.50;;;20.40;61.00;;;;;;4971503;28;20659;-78
2023/03/28 12:56:13;;;;;;;1.42;0.10;;;20.40;61.00;;;;;;4971755;28;20500;-75
2023/03/28 12:58:40;;;;;;;;;;;20.40;60.90;;;;;;4957358;28;20055;-77
2023/03/28 13:01:41;;;;;;;3.33;1.20;;;20.40;61.00;;;;;;4959471;28;19926;-77
2023/03/28 13:04:25;;;;;;;14.95;5.88;;;20.40;60.90;;;;;;4971204;28;20106;-77
2023/03/28 13:07:02;;;;;;;17.30;6.95;;;20.50;61.00;;;;;;4971238;28;20116;-77
2023/03/28 13:10:01;;;;;;;20.35;5.28;;;20.50;61.00;;;;;;4971690;28;20054;-77